Etusivu
METAR-TAF:

METAR-TAF

Lentoasemat :

Piedras Negras, Meksiko

Leveyspiiri: 28-42N, Pituuspiiri: 100-31W, korkeus merenpinnasta: 250 m

METAR: puuttuu

Aika: 17:58 (22:58 UTC)

Sääennuste

Tämä raportti tehtiin 41 tuntia ja 38 minuuttia sitten, kello 05.20 UTC
Ennuste voimassa 16. päivästä klo 06 UTC - 17. päivään klo 06 UTC
Tuuli 10 kn etelästä/kaakosta
Näkyvyys: 9.7 km
Hajonneita pilviä 5000 ft:n korkeudessa
usvaa
From 16. päivästä klo 1500 UTC
Tuuli 12 kn etelästä/kaakosta
Näkyvyys: 10 km
Hajanaisia pilviä 5000 ft:n korkeudessa
Ajoittain
16. päivästä klo 21 UTC - 17. päivään klo 01 UTC
Tuuli 12 kn etelästä/kaakosta puuskistuen 22 kn:hen
From 17. päivästä klo 0100 UTC
Tuuli 8 kn etelästä/kaakosta
Näkyvyys: 10 km
Hajanaisia pilviä 9000 ft:n korkeudessa
Hajonneita pilviä 20000 ft:n korkeudessa

TAF: MMPG 160520Z 1606/1706 15010KT 6SM HZ BKN050 FM161500 15012KT P6SM SCT050 TEMPO 1621/1701 15012G22KT FM170100 16008KT P6SM SCT090 BKN200

Säähavainnot ja -ennusteet yli 4000 lentoasemalta (METAR- ja TAF-raportit).

Käytössä olevat sääasemat on merkitty karttaan keltaisilla ja punaisilla pisteillä.

Aseta hiiri pisteen päälle nähdäksesi sääaseman nimen.

Klikkaa sitten nähdäksesi säähavainnot ja -ennusteet.

Kartan vaihtaminen: klikkaa mustalla rastilla varustettuja vihreitä pisteitä, niin voit zoomata sisään; viivalla varustettua vihreää pistettä, niin voit zoomata ulos tai vihreitä nuolia, niin pääset viereisille kartoille.


METAR-TAF: